sensor_id;sensor_type;location;lat;lon;timestamp;pressure;altitude;pressure_sealevel;temperature;humidity
11830;BME280;5972;42.134;24.718;2023-06-19T00:00:47;99502.91;;;22.73;100.00
11830;BME280;5972;42.134;24.718;2023-06-19T00:03:16;99422.09;;;22.36;100.00
11830;BME280;5972;42.134;24.718;2023-06-19T00:05:44;99401.81;;;22.07;100.00
11830;BME280;5972;42.134;24.718;2023-06-19T00:08:11;99456.44;;;22.52;100.00
11830;BME280;5972;42.134;24.718;2023-06-19T00:10:38;99487.25;;;22.66;100.00
11830;BME280;5972;42.134;24.718;2023-06-19T00:13:05;99485.78;;;22.62;100.00
11830;BME280;5972;42.134;24.718;2023-06-19T00:15:31;99477.28;;;22.53;100.00
11830;BME280;5972;42.134;24.718;2023-06-19T00:17:58;99400.03;;;21.97;100.00
11830;BME280;5972;42.134;24.718;2023-06-19T00:20:26;99437.72;;;22.23;100.00
11830;BME280;5972;42.134;24.718;2023-06-19T00:22:57;99479.84;;;22.44;100.00
11830;BME280;5972;42.134;24.718;2023-06-19T00:25:24;99449.31;;;22.15;100.00
11830;BME280;5972;42.134;24.718;2023-06-19T00:27:51;99440.66;;;22.13;100.00
11830;BME280;5972;42.134;24.718;2023-06-19T00:30:20;99511.44;;;22.39;100.00
11830;BME280;5972;42.134;24.718;2023-06-19T00:32:50;99354.84;;;21.51;100.00
11830;BME280;5972;42.134;24.718;2023-06-19T00:35:23;99441.25;;;22.04;100.00
11830;BME280;5972;42.134;24.718;2023-06-19T00:37:54;99360.31;;;21.55;100.00
11830;BME280;5972;42.134;24.718;2023-06-19T00:40:29;99348.34;;;21.42;100.00
11830;BME280;5972;42.134;24.718;2023-06-19T00:42:56;99438.38;;;21.88;100.00
11830;BME280;5972;42.134;24.718;2023-06-19T00:45:24;99365.50;;;21.49;100.00
11830;BME280;5972;42.134;24.718;2023-06-19T00:47:51;99500.69;;;22.25;100.00
11830;BME280;5972;42.134;24.718;2023-06-19T00:50:19;99475.66;;;22.16;100.00
11830;BME280;5972;42.134;24.718;2023-06-19T00:52:46;99485.50;;;22.17;100.00
11830;BME280;5972;42.134;24.718;2023-06-19T00:55:15;99490.56;;;22.18;100.00
11830;BME280;5972;42.134;24.718;2023-06-19T00:57:42;99358.53;;;21.22;100.00
11830;BME280;5972;42.134;24.718;2023-06-19T01:00:10;99425.34;;;21.69;100.00
11830;BME280;5972;42.134;24.718;2023-06-19T01:02:38;99481.38;;;22.05;100.00
11830;BME280;5972;42.134;24.718;2023-06-19T01:05:05;99477.91;;;22.01;100.00
11830;BME280;5972;42.134;24.718;2023-06-19T01:07:39;99432.81;;;21.68;100.00
11830;BME280;5972;42.134;24.718;2023-06-19T01:10:16;99492.75;;;22.07;100.00
11830;BME280;5972;42.134;24.718;2023-06-19T01:12:46;99438.81;;;21.63;100.00
11830;BME280;5972;42.134;24.718;2023-06-19T01:15:16;99471.06;;;21.86;100.00
11830;BME280;5972;42.134;24.718;2023-06-19T01:17:43;99482.81;;;21.90;100.00
11830;BME280;5972;42.134;24.718;2023-06-19T01:20:12;99483.06;;;21.99;100.00
11830;BME280;5972;42.134;24.718;2023-06-19T01:22:42;99460.59;;;21.77;100.00
11830;BME280;5972;42.134;24.718;2023-06-19T01:25:12;99417.44;;;21.47;100.00
11830;BME280;5972;42.134;24.718;2023-06-19T01:27:40;99454.72;;;21.75;100.00
11830;BME280;5972;42.134;24.718;2023-06-19T01:30:12;99356.75;;;21.08;100.00
11830;BME280;5972;42.134;24.718;2023-06-19T01:32:47;99489.44;;;21.92;100.00
11830;BME280;5972;42.134;24.718;2023-06-19T01:35:19;99493.38;;;21.95;100.00
11830;BME280;5972;42.134;24.718;2023-06-19T01:37:49;99358.78;;;21.04;100.00
11830;BME280;5972;42.134;24.718;2023-06-19T01:40:17;99441.41;;;21.50;100.00
11830;BME280;5972;42.134;24.718;2023-06-19T01:42:47;99491.41;;;21.92;100.00
11830;BME280;5972;42.134;24.718;2023-06-19T01:45:14;99479.31;;;21.86;100.00
11830;BME280;5972;42.134;24.718;2023-06-19T01:47:41;99369.25;;;21.12;100.00
11830;BME280;5972;42.134;24.718;2023-06-19T01:50:10;99480.06;;;21.90;100.00
11830;BME280;5972;42.134;24.718;2023-06-19T01:52:37;99447.66;;;21.74;100.00
11830;BME280;5972;42.134;24.718;2023-06-19T01:55:07;99474.59;;;21.86;100.00
11830;BME280;5972;42.134;24.718;2023-06-19T01:57:35;99312.97;;;20.70;100.00
11830;BME280;5972;42.134;24.718;2023-06-19T02:00:05;99418.16;;;21.51;100.00
11830;BME280;5972;42.134;24.718;2023-06-19T02:02:33;99417.34;;;21.54;100.00
11830;BME280;5972;42.134;24.718;2023-06-19T02:05:00;99482.88;;;21.86;100.00
11830;BME280;5972;42.134;24.718;2023-06-19T02:07:27;99469.78;;;21.90;100.00
11830;BME280;5972;42.134;24.718;2023-06-19T02:09:54;99321.88;;;20.78;100.00
11830;BME280;5972;42.134;24.718;2023-06-19T02:12:22;99479.69;;;21.88;100.00
11830;BME280;5972;42.134;24.718;2023-06-19T02:14:49;99479.00;;;21.84;100.00
11830;BME280;5972;42.134;24.718;2023-06-19T02:17:16;99394.50;;;21.34;100.00
11830;BME280;5972;42.134;24.718;2023-06-19T02:19:43;99403.19;;;21.29;100.00
11830;BME280;5972;42.134;24.718;2023-06-19T02:22:10;99493.84;;;21.90;100.00
11830;BME280;5972;42.134;24.718;2023-06-19T02:24:37;99421.16;;;21.37;100.00
11830;BME280;5972;42.134;24.718;2023-06-19T02:27:05;99484.97;;;21.79;100.00
11830;BME280;5972;42.134;24.718;2023-06-19T02:29:34;99429.59;;;21.50;100.00
11830;BME280;5972;42.134;24.718;2023-06-19T02:32:00;99419.00;;;21.48;100.00
11830;BME280;5972;42.134;24.718;2023-06-19T02:34:27;99475.09;;;21.81;100.00
11830;BME280;5972;42.134;24.718;2023-06-19T02:36:54;99498.09;;;21.94;100.00
11830;BME280;5972;42.134;24.718;2023-06-19T02:39:21;99508.66;;;22.00;100.00
11830;BME280;5972;42.134;24.718;2023-06-19T02:41:50;99495.69;;;21.96;100.00
11830;BME280;5972;42.134;24.718;2023-06-19T02:44:19;99415.66;;;21.37;100.00
11830;BME280;5972;42.134;24.718;2023-06-19T02:46:47;99501.50;;;22.02;100.00
11830;BME280;5972;42.134;24.718;2023-06-19T02:49:14;99357.59;;;21.05;100.00
11830;BME280;5972;42.134;24.718;2023-06-19T02:51:41;99489.06;;;21.90;100.00
11830;BME280;5972;42.134;24.718;2023-06-19T02:54:08;99502.22;;;22.06;100.00
11830;BME280;5972;42.134;24.718;2023-06-19T02:56:35;99510.41;;;22.10;100.00
11830;BME280;5972;42.134;24.718;2023-06-19T02:59:01;99485.41;;;22.01;100.00
11830;BME280;5972;42.134;24.718;2023-06-19T03:01:28;99511.09;;;22.17;100.00
11830;BME280;5972;42.134;24.718;2023-06-19T03:03:56;99479.94;;;21.97;100.00
11830;BME280;5972;42.134;24.718;2023-06-19T03:06:26;99495.16;;;22.05;100.00
11830;BME280;5972;42.134;24.718;2023-06-19T03:08:53;99516.88;;;22.23;100.00
11830;BME280;5972;42.134;24.718;2023-06-19T03:11:22;99495.44;;;22.11;100.00
11830;BME280;5972;42.134;24.718;2023-06-19T03:13:51;99456.47;;;21.89;100.00
11830;BME280;5972;42.134;24.718;2023-06-19T03:16:18;99424.22;;;21.66;100.00
11830;BME280;5972;42.134;24.718;2023-06-19T03:18:47;99440.47;;;21.80;100.00
11830;BME280;5972;42.134;24.718;2023-06-19T03:21:16;99509.47;;;22.39;100.00
11830;BME280;5972;42.134;24.718;2023-06-19T03:23:44;99509.03;;;22.41;100.00
11830;BME280;5972;42.134;24.718;2023-06-19T03:26:12;99485.56;;;22.33;100.00
11830;BME280;5972;42.134;24.718;2023-06-19T03:28:39;99524.94;;;22.53;100.00
11830;BME280;5972;42.134;24.718;2023-06-19T03:31:06;99431.00;;;22.05;100.00
11830;BME280;5972;42.134;24.718;2023-06-19T03:33:33;99518.97;;;22.78;100.00
11830;BME280;5972;42.134;24.718;2023-06-19T03:36:03;99465.28;;;22.43;100.00
11830;BME280;5972;42.134;24.718;2023-06-19T03:38:32;99390.22;;;21.96;100.00
11830;BME280;5972;42.134;24.718;2023-06-19T03:41:02;99448.25;;;22.48;100.00
11830;BME280;5972;42.134;24.718;2023-06-19T03:43:31;99522.06;;;23.00;100.00
11830;BME280;5972;42.134;24.718;2023-06-19T03:45:58;99535.53;;;23.14;100.00
11830;BME280;5972;42.134;24.718;2023-06-19T03:48:26;99472.16;;;22.91;100.00
11830;BME280;5972;42.134;24.718;2023-06-19T03:50:58;99520.91;;;23.33;100.00
11830;BME280;5972;42.134;24.718;2023-06-19T03:53:27;99452.47;;;23.08;99.28
11830;BME280;5972;42.134;24.718;2023-06-19T03:56:01;99388.31;;;22.68;98.89
11830;BME280;5972;42.134;24.718;2023-06-19T03:58:38;99448.59;;;23.22;96.19
11830;BME280;5972;42.134;24.718;2023-06-19T04:01:05;99512.38;;;23.92;95.02
11830;BME280;5972;42.134;24.718;2023-06-19T04:03:34;99382.44;;;23.35;93.54
11830;BME280;5972;42.134;24.718;2023-06-19T04:06:05;99462.94;;;24.11;89.70
11830;BME280;5972;42.134;24.718;2023-06-19T04:08:40;99478.09;;;24.35;87.80
11830;BME280;5972;42.134;24.718;2023-06-19T04:11:30;99476.03;;;24.52;85.10
11830;BME280;5972;42.134;24.718;2023-06-19T04:14:20;99463.38;;;24.92;82.06
11830;BME280;5972;42.134;24.718;2023-06-19T04:17:14;99375.69;;;24.64;78.74
11830;BME280;5972;42.134;24.718;2023-06-19T04:19:56;99500.88;;;25.94;75.31
11830;BME280;5972;42.134;24.718;2023-06-19T04:25:27;99501.09;;;26.22;72.52
11830;BME280;5972;42.134;24.718;2023-06-19T04:28:43;99381.41;;;26.54;62.77
11830;BME280;5972;42.134;24.718;2023-06-19T04:29:43;99410.19;;;27.95;56.20
11830;BME280;5972;42.134;24.718;2023-06-19T04:32:11;99398.13;;;29.09;51.00
11830;BME280;5972;42.134;24.718;2023-06-19T04:34:38;99456.50;;;30.46;47.08
11830;BME280;5972;42.134;24.718;2023-06-19T04:37:05;99501.53;;;31.42;44.28
11830;BME280;5972;42.134;24.718;2023-06-19T04:39:39;99490.75;;;31.90;42.87
11830;BME280;5972;42.134;24.718;2023-06-19T04:42:10;99418.69;;;32.31;40.75
11830;BME280;5972;42.134;24.718;2023-06-19T04:44:43;99432.88;;;32.79;39.71
11830;BME280;5972;42.134;24.718;2023-06-19T04:47:16;99440.38;;;33.30;39.06
11830;BME280;5972;42.134;24.718;2023-06-19T04:49:45;99463.63;;;33.85;38.15
11830;BME280;5972;42.134;24.718;2023-06-19T04:52:14;99438.13;;;33.88;37.32
11830;BME280;5972;42.134;24.718;2023-06-19T04:54:41;99426.75;;;34.31;36.20
11830;BME280;5972;42.134;24.718;2023-06-19T04:57:17;99450.53;;;34.52;35.14
11830;BME280;5972;42.134;24.718;2023-06-19T04:59:47;99404.25;;;35.03;34.41
11830;BME280;5972;42.134;24.718;2023-06-19T05:02:37;99441.53;;;35.42;33.86
11830;BME280;5972;42.134;24.718;2023-06-19T05:05:17;99416.91;;;35.60;33.21
11830;BME280;5972;42.134;24.718;2023-06-19T05:07:51;99470.16;;;36.21;33.01
11830;BME280;5972;42.134;24.718;2023-06-19T05:10:32;99423.47;;;35.84;32.41
11830;BME280;5972;42.134;24.718;2023-06-19T05:13:05;99405.28;;;36.62;31.93
11830;BME280;5972;42.134;24.718;2023-06-19T05:15:45;99472.97;;;37.46;31.15
11830;BME280;5972;42.134;24.718;2023-06-19T05:18:27;99446.00;;;37.26;30.85
11830;BME280;5972;42.134;24.718;2023-06-19T05:20:57;99467.31;;;37.46;30.52
11830;BME280;5972;42.134;24.718;2023-06-19T05:23:28;99433.84;;;37.07;30.63
11830;BME280;5972;42.134;24.718;2023-06-19T05:25:58;99534.13;;;38.11;29.86
11830;BME280;5972;42.134;24.718;2023-06-19T05:28:29;99460.06;;;37.75;30.19
11830;BME280;5972;42.134;24.718;2023-06-19T05:31:16;99454.34;;;37.80;29.86
11830;BME280;5972;42.134;24.718;2023-06-19T05:33:49;99512.28;;;38.49;29.42
11830;BME280;5972;42.134;24.718;2023-06-19T05:36:48;99501.03;;;38.43;29.40
11830;BME280;5972;42.134;24.718;2023-06-19T05:39:46;99475.34;;;38.41;28.86
11830;BME280;5972;42.134;24.718;2023-06-19T05:43:02;99479.88;;;38.31;29.53
11830;BME280;5972;42.134;24.718;2023-06-19T05:45:59;99442.97;;;38.42;28.93
11830;BME280;5972;42.134;24.718;2023-06-19T05:48:32;99456.09;;;38.58;28.43
11830;BME280;5972;42.134;24.718;2023-06-19T05:51:24;99452.69;;;38.47;28.77
11830;BME280;5972;42.134;24.718;2023-06-19T05:53:54;99448.56;;;38.29;28.64
11830;BME280;5972;42.134;24.718;2023-06-19T05:56:38;99409.41;;;38.20;29.10
11830;BME280;5972;42.134;24.718;2023-06-19T06:00:25;99417.28;;;38.40;28.57
11830;BME280;5972;42.134;24.718;2023-06-19T06:02:51;99396.69;;;37.52;28.77
11830;BME280;5972;42.134;24.718;2023-06-19T06:06:05;99529.09;;;38.60;28.54
11830;BME280;5972;42.134;24.718;2023-06-19T06:09:17;99409.31;;;38.07;27.83
11830;BME280;5972;42.134;24.718;2023-06-19T06:11:41;99438.41;;;37.83;27.98
11830;BME280;5972;42.134;24.718;2023-06-19T06:14:31;99396.97;;;37.05;28.83
11830;BME280;5972;42.134;24.718;2023-06-19T06:17:21;99497.59;;;36.56;30.19
11830;BME280;5972;42.134;24.718;2023-06-19T06:21:16;99379.69;;;33.87;32.64
11830;BME280;5972;42.134;24.718;2023-06-19T06:23:50;99434.88;;;32.47;34.47
11830;BME280;5972;42.134;24.718;2023-06-19T06:27:47;99480.28;;;32.11;36.96
11830;BME280;5972;42.134;24.718;2023-06-19T06:29:53;99422.53;;;31.12;37.31
11830;BME280;5972;42.134;24.718;2023-06-19T06:33:39;99493.00;;;30.72;38.88
11830;BME280;5972;42.134;24.718;2023-06-19T06:35:18;99516.16;;;30.34;40.32
11830;BME280;5972;42.134;24.718;2023-06-19T06:38:05;99433.34;;;29.54;41.22
11830;BME280;5972;42.134;24.718;2023-06-19T06:40:36;99458.94;;;29.53;41.79
11830;BME280;5972;42.134;24.718;2023-06-19T06:43:17;99464.31;;;29.32;41.85
11830;BME280;5972;42.134;24.718;2023-06-19T06:46:08;99378.88;;;28.54;42.48
11830;BME280;5972;42.134;24.718;2023-06-19T06:48:48;99373.47;;;28.51;43.28
11830;BME280;5972;42.134;24.718;2023-06-19T06:52:04;99374.72;;;28.50;43.42
11830;BME280;5972;42.134;24.718;2023-06-19T06:54:29;99462.72;;;29.08;43.73
11830;BME280;5972;42.134;24.718;2023-06-19T06:57:10;99475.75;;;28.92;44.38
11830;BME280;5972;42.134;24.718;2023-06-19T06:59:48;99395.91;;;28.47;45.25
11830;BME280;5972;42.134;24.718;2023-06-19T07:02:16;99495.97;;;29.11;44.63
11830;BME280;5972;42.134;24.718;2023-06-19T07:04:43;99503.03;;;29.21;44.94
11830;BME280;5972;42.134;24.718;2023-06-19T07:07:18;99485.94;;;29.05;44.25
11830;BME280;5972;42.134;24.718;2023-06-19T07:09:47;99503.47;;;29.29;44.27
11830;BME280;5972;42.134;24.718;2023-06-19T07:12:14;99468.94;;;29.03;44.36
11830;BME280;5972;42.134;24.718;2023-06-19T07:14:43;99488.94;;;29.25;44.27
11830;BME280;5972;42.134;24.718;2023-06-19T07:17:12;99511.41;;;29.54;44.06
11830;BME280;5972;42.134;24.718;2023-06-19T07:19:44;99506.75;;;29.37;42.68
11830;BME280;5972;42.134;24.718;2023-06-19T07:22:44;99510.91;;;29.41;42.65
11830;BME280;5972;42.134;24.718;2023-06-19T07:25:13;99370.25;;;28.43;43.47
11830;BME280;5972;42.134;24.718;2023-06-19T07:27:56;99458.84;;;29.05;44.17
11830;BME280;5972;42.134;24.718;2023-06-19T07:30:27;99464.66;;;29.25;42.88
11830;BME280;5972;42.134;24.718;2023-06-19T07:33:00;99446.59;;;29.12;42.33
11830;BME280;5972;42.134;24.718;2023-06-19T07:35:43;99493.06;;;29.48;42.53
11830;BME280;5972;42.134;24.718;2023-06-19T07:38:12;99516.19;;;29.63;43.31
11830;BME280;5972;42.134;24.718;2023-06-19T07:40:48;99410.13;;;29.01;43.33
11830;BME280;5972;42.134;24.718;2023-06-19T07:43:25;99457.50;;;29.33;43.18
11830;BME280;5972;42.134;24.718;2023-06-19T07:46:33;99510.00;;;29.83;43.28
11830;BME280;5972;42.134;24.718;2023-06-19T07:49:07;99401.63;;;28.95;42.40
11830;BME280;5972;42.134;24.718;2023-06-19T07:55:38;99383.94;;;29.07;41.20
11830;BME280;5972;42.134;24.718;2023-06-19T07:58:21;99378.34;;;29.07;41.04
11830;BME280;5972;42.134;24.718;2023-06-19T08:00:50;99531.28;;;30.04;41.41
11830;BME280;5972;42.134;24.718;2023-06-19T08:03:21;99400.97;;;29.33;41.27
11830;BME280;5972;42.134;24.718;2023-06-19T08:05:59;99454.31;;;29.50;40.67
11830;BME280;5972;42.134;24.718;2023-06-19T08:08:44;99525.19;;;29.91;41.48
11830;BME280;5972;42.134;24.718;2023-06-19T08:11:32;99409.91;;;29.13;41.32
11830;BME280;5972;42.134;24.718;2023-06-19T08:14:02;99488.06;;;29.75;40.83
11830;BME280;5972;42.134;24.718;2023-06-19T08:16:29;99376.34;;;29.31;40.68
11830;BME280;5972;42.134;24.718;2023-06-19T08:18:58;99458.72;;;30.04;39.05
11830;BME280;5972;42.134;24.718;2023-06-19T08:21:33;99461.25;;;30.02;40.16
11830;BME280;5972;42.134;24.718;2023-06-19T08:24:00;99508.91;;;30.51;39.80
11830;BME280;5972;42.134;24.718;2023-06-19T08:26:30;99375.56;;;29.55;40.19
11830;BME280;5972;42.134;24.718;2023-06-19T08:29:01;99413.72;;;29.72;39.97
11830;BME280;5972;42.134;24.718;2023-06-19T08:31:31;99357.69;;;29.47;40.31
11830;BME280;5972;42.134;24.718;2023-06-19T08:34:01;99416.06;;;29.89;40.03
11830;BME280;5972;42.134;24.718;2023-06-19T08:36:41;99384.38;;;29.77;39.42
11830;BME280;5972;42.134;24.718;2023-06-19T08:39:08;99508.91;;;30.66;38.81
11830;BME280;5972;42.134;24.718;2023-06-19T08:41:49;99448.75;;;30.27;39.43
11830;BME280;5972;42.134;24.718;2023-06-19T08:44:57;99537.91;;;30.69;39.07
11830;BME280;5972;42.134;24.718;2023-06-19T08:47:20;99432.78;;;30.27;39.78
11830;BME280;5972;42.134;24.718;2023-06-19T08:50:03;99455.72;;;30.46;38.75
11830;BME280;5972;42.134;24.718;2023-06-19T08:52:56;99473.38;;;30.81;38.36
11830;BME280;5972;42.134;24.718;2023-06-19T08:55:27;99485.09;;;31.00;37.28
11830;BME280;5972;42.134;24.718;2023-06-19T08:58:33;99402.56;;;30.40;37.54
11830;BME280;5972;42.134;24.718;2023-06-19T09:01:46;99520.34;;;31.27;36.64
11830;BME280;5972;42.134;24.718;2023-06-19T09:04:39;99488.94;;;31.03;37.49
11830;BME280;5972;42.134;24.718;2023-06-19T09:11:18;99430.13;;;30.62;37.29
11830;BME280;5972;42.134;24.718;2023-06-19T09:13:57;99375.50;;;30.32;37.59
11830;BME280;5972;42.134;24.718;2023-06-19T09:19:50;99356.16;;;30.28;37.49
11830;BME280;5972;42.134;24.718;2023-06-19T09:22:28;99387.47;;;30.62;37.69
11830;BME280;5972;42.134;24.718;2023-06-19T09:28:43;99454.22;;;31.24;36.65
11830;BME280;5972;42.134;24.718;2023-06-19T09:34:13;99371.91;;;30.90;36.82
11830;BME280;5972;42.134;24.718;2023-06-19T09:36:58;99483.19;;;31.76;36.17
11830;BME280;5972;42.134;24.718;2023-06-19T09:39:51;99385.53;;;31.17;36.17
11830;BME280;5972;42.134;24.718;2023-06-19T09:42:58;99357.22;;;30.95;35.55
11830;BME280;5972;42.134;24.718;2023-06-19T09:45:56;99461.88;;;31.44;35.68
11830;BME280;5972;42.134;24.718;2023-06-19T09:50:03;99405.38;;;31.19;36.03
11830;BME280;5972;42.134;24.718;2023-06-19T09:52:10;99477.59;;;31.41;35.79
11830;BME280;5972;42.134;24.718;2023-06-19T09:54:58;99480.09;;;31.39;36.54
11830;BME280;5972;42.134;24.718;2023-06-19T09:58:25;99485.31;;;31.46;36.38
11830;BME280;5972;42.134;24.718;2023-06-19T10:00:53;99397.47;;;31.18;35.44
11830;BME280;5972;42.134;24.718;2023-06-19T10:03:39;99351.56;;;30.89;34.85
11830;BME280;5972;42.134;24.718;2023-06-19T10:06:16;99468.91;;;31.74;35.11
11830;BME280;5972;42.134;24.718;2023-06-19T10:09:11;99430.22;;;31.52;35.23
11830;BME280;5972;42.134;24.718;2023-06-19T10:12:08;99399.53;;;31.58;35.12
11830;BME280;5972;42.134;24.718;2023-06-19T10:17:09;99378.97;;;31.61;34.56
11830;BME280;5972;42.134;24.718;2023-06-19T10:18:24;99350.00;;;31.44;34.67
11830;BME280;5972;42.134;24.718;2023-06-19T10:24:16;99467.56;;;32.10;36.00
11830;BME280;5972;42.134;24.718;2023-06-19T10:27:04;99389.50;;;31.92;35.47
11830;BME280;5972;42.134;24.718;2023-06-19T10:29:55;99332.25;;;31.47;34.56
11830;BME280;5972;42.134;24.718;2023-06-19T10:32:27;99309.69;;;31.30;34.81
11830;BME280;5972;42.134;24.718;2023-06-19T10:35:23;99402.38;;;32.04;35.32
11830;BME280;5972;42.134;24.718;2023-06-19T10:38:02;99305.06;;;31.67;35.03
11830;BME280;5972;42.134;24.718;2023-06-19T10:41:04;99310.22;;;31.74;34.74
11830;BME280;5972;42.134;24.718;2023-06-19T10:44:13;99327.00;;;32.00;34.64
11830;BME280;5972;42.134;24.718;2023-06-19T10:47:09;99363.28;;;32.41;33.95
11830;BME280;5972;42.134;24.718;2023-06-19T10:49:48;99330.22;;;32.13;34.13
11830;BME280;5972;42.134;24.718;2023-06-19T10:52:43;99374.13;;;32.59;34.64
11830;BME280;5972;42.134;24.718;2023-06-19T10:55:17;99358.81;;;32.54;34.12
11830;BME280;5972;42.134;24.718;2023-06-19T10:57:50;99369.69;;;32.47;34.54
11830;BME280;5972;42.134;24.718;2023-06-19T11:00:47;99399.06;;;32.94;35.18
11830;BME280;5972;42.134;24.718;2023-06-19T11:06:20;99341.06;;;32.32;35.01
11830;BME280;5972;42.134;24.718;2023-06-19T11:08:58;99403.84;;;32.51;35.23
11830;BME280;5972;42.134;24.718;2023-06-19T11:12:33;99341.94;;;31.92;35.53
11830;BME280;5972;42.134;24.718;2023-06-19T11:15:51;99408.63;;;31.73;35.47
11830;BME280;5972;42.134;24.718;2023-06-19T11:22:23;99361.53;;;31.71;35.71
11830;BME280;5972;42.134;24.718;2023-06-19T11:25:42;99261.69;;;31.11;36.22
11830;BME280;5972;42.134;24.718;2023-06-19T11:32:04;99375.00;;;32.13;34.38
11830;BME280;5972;42.134;24.718;2023-06-19T11:35:08;99335.19;;;32.04;34.21
11830;BME280;5972;42.134;24.718;2023-06-19T11:38:22;99281.28;;;31.83;33.71
11830;BME280;5972;42.134;24.718;2023-06-19T11:40:54;99302.78;;;32.23;33.75
11830;BME280;5972;42.134;24.718;2023-06-19T11:43:39;99332.13;;;32.65;33.20
11830;BME280;5972;42.134;24.718;2023-06-19T11:46:10;99311.75;;;32.33;33.60
11830;BME280;5972;42.134;24.718;2023-06-19T11:48:52;99330.16;;;32.39;32.68
11830;BME280;5972;42.134;24.718;2023-06-19T11:51:19;99345.94;;;32.68;32.80
11830;BME280;5972;42.134;24.718;2023-06-19T11:53:48;99284.66;;;32.13;33.01
11830;BME280;5972;42.134;24.718;2023-06-19T11:56:15;99374.59;;;32.89;33.31
11830;BME280;5972;42.134;24.718;2023-06-19T11:58:42;99378.69;;;32.88;33.58
11830;BME280;5972;42.134;24.718;2023-06-19T12:01:10;99349.88;;;32.87;34.11
11830;BME280;5972;42.134;24.718;2023-06-19T12:03:49;99328.19;;;32.82;33.44
11830;BME280;5972;42.134;24.718;2023-06-19T12:06:20;99278.28;;;32.49;33.22
11830;BME280;5972;42.134;24.718;2023-06-19T12:09:08;99381.44;;;33.19;32.81
11830;BME280;5972;42.134;24.718;2023-06-19T12:11:39;99243.22;;;32.23;33.14
11830;BME280;5972;42.134;24.718;2023-06-19T12:14:10;99326.75;;;32.98;32.69
11830;BME280;5972;42.134;24.718;2023-06-19T12:16:46;99304.75;;;32.80;31.82
11830;BME280;5972;42.134;24.718;2023-06-19T12:19:24;99189.88;;;31.43;32.18
11830;BME280;5972;42.134;24.718;2023-06-19T12:22:06;99263.03;;;32.13;31.97
11830;BME280;5972;42.134;24.718;2023-06-19T12:24:46;99291.03;;;32.50;31.33
11830;BME280;5972;42.134;24.718;2023-06-19T12:27:17;99349.06;;;33.18;31.34
11830;BME280;5972;42.134;24.718;2023-06-19T12:29:59;99238.88;;;32.58;31.35
11830;BME280;5972;42.134;24.718;2023-06-19T12:32:52;99321.22;;;33.15;30.36
11830;BME280;5972;42.134;24.718;2023-06-19T12:35:26;99308.31;;;33.28;30.77
11830;BME280;5972;42.134;24.718;2023-06-19T12:38:07;99331.34;;;33.49;30.92
11830;BME280;5972;42.134;24.718;2023-06-19T12:40:43;99308.56;;;33.30;30.53
11830;BME280;5972;42.134;24.718;2023-06-19T12:43:29;99212.00;;;32.35;30.72
11830;BME280;5972;42.134;24.718;2023-06-19T12:46:00;99204.41;;;32.04;29.75
11830;BME280;5972;42.134;24.718;2023-06-19T12:48:30;99318.69;;;32.69;30.22
11830;BME280;5972;42.134;24.718;2023-06-19T12:51:08;99198.25;;;32.00;30.91
11830;BME280;5972;42.134;24.718;2023-06-19T12:53:50;99223.19;;;32.30;30.82
11830;BME280;5972;42.134;24.718;2023-06-19T12:56:17;99193.69;;;31.71;31.62
11830;BME280;5972;42.134;24.718;2023-06-19T12:59:01;99193.13;;;31.93;30.77
11830;BME280;5972;42.134;24.718;2023-06-19T13:01:27;99199.34;;;31.77;31.44
11830;BME280;5972;42.134;24.718;2023-06-19T13:04:00;99216.44;;;31.85;31.63
11830;BME280;5972;42.134;24.718;2023-06-19T13:06:48;99329.75;;;32.89;30.94
11830;BME280;5972;42.134;24.718;2023-06-19T13:09:26;99324.50;;;33.08;30.90
11830;BME280;5972;42.134;24.718;2023-06-19T13:11:56;99243.47;;;32.61;30.94
11830;BME280;5972;42.134;24.718;2023-06-19T13:14:25;99274.00;;;33.02;30.52
11830;BME280;5972;42.134;24.718;2023-06-19T13:16:55;99207.69;;;32.77;30.42
11830;BME280;5972;42.134;24.718;2023-06-19T13:19:39;99206.88;;;32.65;29.54
11830;BME280;5972;42.134;24.718;2023-06-19T13:22:21;99272.59;;;33.23;30.28
11830;BME280;5972;42.134;24.718;2023-06-19T13:26:33;99318.38;;;33.68;30.13
11830;BME280;5972;42.134;24.718;2023-06-19T13:28:42;99194.31;;;32.60;30.41
11830;BME280;5972;42.134;24.718;2023-06-19T13:31:13;99237.53;;;32.91;30.26
11830;BME280;5972;42.134;24.718;2023-06-19T13:33:47;99217.91;;;32.85;29.71
11830;BME280;5972;42.134;24.718;2023-06-19T13:36:20;99197.16;;;32.66;29.76
11830;BME280;5972;42.134;24.718;2023-06-19T13:38:50;99175.09;;;32.37;30.13
11830;BME280;5972;42.134;24.718;2023-06-19T13:41:22;99187.91;;;32.49;29.93
11830;BME280;5972;42.134;24.718;2023-06-19T13:43:58;99174.88;;;32.03;30.28
11830;BME280;5972;42.134;24.718;2023-06-19T13:46:27;99229.97;;;32.60;30.90
11830;BME280;5972;42.134;24.718;2023-06-19T13:48:56;99188.31;;;32.31;31.48
11830;BME280;5972;42.134;24.718;2023-06-19T13:51:25;99310.34;;;33.33;31.23
11830;BME280;5972;42.134;24.718;2023-06-19T13:54:05;99224.84;;;32.53;31.28
11830;BME280;5972;42.134;24.718;2023-06-19T13:56:50;99304.81;;;32.96;31.69
11830;BME280;5972;42.134;24.718;2023-06-19T13:59:19;99172.84;;;32.04;34.51
11830;BME280;5972;42.134;24.718;2023-06-19T14:01:46;99277.84;;;32.62;35.79
11830;BME280;5972;42.134;24.718;2023-06-19T14:04:20;99192.97;;;31.51;36.75
11830;BME280;5972;42.134;24.718;2023-06-19T14:06:47;99210.53;;;31.77;37.13
11830;BME280;5972;42.134;24.718;2023-06-19T14:09:16;99268.81;;;31.12;37.85
11830;BME280;5972;42.134;24.718;2023-06-19T14:11:43;99304.09;;;31.30;38.57
11830;BME280;5972;42.134;24.718;2023-06-19T14:14:17;99315.19;;;31.45;37.64
11830;BME280;5972;42.134;24.718;2023-06-19T14:16:44;99243.72;;;30.97;38.68
11830;BME280;5972;42.134;24.718;2023-06-19T14:19:13;99265.50;;;30.93;38.48
11830;BME280;5972;42.134;24.718;2023-06-19T14:21:43;99273.00;;;31.22;38.00
11830;BME280;5972;42.134;24.718;2023-06-19T14:24:13;99269.38;;;31.36;38.97